sensor_id;sensor_type;location;lat;lon;timestamp;P1;durP1;ratioP1;P2;durP2;ratioP2
57842;SDS011;43673;51.058;3.734;2022-07-17T00:00:12;11.30;;;4.95;;
57842;SDS011;43673;51.058;3.734;2022-07-17T00:02:39;6.03;;;3.00;;
57842;SDS011;43673;51.058;3.734;2022-07-17T00:05:05;8.05;;;4.07;;
57842;SDS011;43673;51.058;3.734;2022-07-17T00:07:31;5.72;;;2.55;;
57842;SDS011;43673;51.058;3.734;2022-07-17T00:09:57;4.20;;;2.65;;
57842;SDS011;43673;51.058;3.734;2022-07-17T00:12:22;9.50;;;2.78;;
57842;SDS011;43673;51.058;3.734;2022-07-17T00:14:49;3.28;;;2.50;;
57842;SDS011;43673;51.058;3.734;2022-07-17T00:17:23;9.77;;;2.95;;
57842;SDS011;43673;51.058;3.734;2022-07-17T00:19:49;4.35;;;2.63;;
57842;SDS011;43673;51.058;3.734;2022-07-17T00:22:15;4.63;;;2.55;;
57842;SDS011;43673;51.058;3.734;2022-07-17T00:24:40;6.55;;;2.92;;
57842;SDS011;43673;51.058;3.734;2022-07-17T00:27:06;3.30;;;2.78;;
57842;SDS011;43673;51.058;3.734;2022-07-17T00:29:32;4.85;;;3.17;;
57842;SDS011;43673;51.058;3.734;2022-07-17T00:31:57;5.82;;;2.92;;
57842;SDS011;43673;51.058;3.734;2022-07-17T00:34:25;5.60;;;3.13;;
57842;SDS011;43673;51.058;3.734;2022-07-17T00:36:58;3.60;;;2.75;;
57842;SDS011;43673;51.058;3.734;2022-07-17T00:39:24;5.95;;;4.70;;
57842;SDS011;43673;51.058;3.734;2022-07-17T00:41:49;6.80;;;2.92;;
57842;SDS011;43673;51.058;3.734;2022-07-17T00:44:15;3.63;;;2.55;;
57842;SDS011;43673;51.058;3.734;2022-07-17T00:46:41;5.68;;;2.95;;
57842;SDS011;43673;51.058;3.734;2022-07-17T00:49:07;4.30;;;3.42;;
57842;SDS011;43673;51.058;3.734;2022-07-17T00:51:33;5.35;;;2.70;;
57842;SDS011;43673;51.058;3.734;2022-07-17T00:53:59;8.98;;;4.03;;
57842;SDS011;43673;51.058;3.734;2022-07-17T00:56:27;4.38;;;2.80;;
57842;SDS011;43673;51.058;3.734;2022-07-17T00:58:57;6.32;;;3.28;;
57842;SDS011;43673;51.058;3.734;2022-07-17T01:01:33;3.83;;;2.58;;
57842;SDS011;43673;51.058;3.734;2022-07-17T01:03:59;5.60;;;3.55;;
57842;SDS011;43673;51.058;3.734;2022-07-17T01:06:29;8.70;;;3.85;;
57842;SDS011;43673;51.058;3.734;2022-07-17T01:08:55;10.20;;;3.50;;
57842;SDS011;43673;51.058;3.734;2022-07-17T01:11:21;5.40;;;3.72;;
57842;SDS011;43673;51.058;3.734;2022-07-17T01:13:47;4.93;;;2.92;;
57842;SDS011;43673;51.058;3.734;2022-07-17T01:16:13;4.22;;;3.10;;
57842;SDS011;43673;51.058;3.734;2022-07-17T01:18:39;5.43;;;3.25;;
57842;SDS011;43673;51.058;3.734;2022-07-17T01:21:07;6.35;;;3.55;;
57842;SDS011;43673;51.058;3.734;2022-07-17T01:23:32;10.02;;;3.72;;
57842;SDS011;43673;51.058;3.734;2022-07-17T01:25:58;5.32;;;3.63;;
57842;SDS011;43673;51.058;3.734;2022-07-17T01:28:24;8.88;;;3.20;;
57842;SDS011;43673;51.058;3.734;2022-07-17T01:30:50;8.07;;;3.17;;
57842;SDS011;43673;51.058;3.734;2022-07-17T01:33:17;10.10;;;3.63;;
57842;SDS011;43673;51.058;3.734;2022-07-17T01:35:43;4.05;;;2.95;;
57842;SDS011;43673;51.058;3.734;2022-07-17T01:38:09;6.68;;;3.70;;
57842;SDS011;43673;51.058;3.734;2022-07-17T01:40:34;10.25;;;3.83;;
57842;SDS011;43673;51.058;3.734;2022-07-17T01:43:00;6.03;;;3.88;;
57842;SDS011;43673;51.058;3.734;2022-07-17T01:45:26;8.02;;;3.55;;
57842;SDS011;43673;51.058;3.734;2022-07-17T01:47:52;10.48;;;3.75;;
57842;SDS011;43673;51.058;3.734;2022-07-17T01:50:18;8.15;;;3.78;;
57842;SDS011;43673;51.058;3.734;2022-07-17T01:52:44;4.60;;;3.28;;
57842;SDS011;43673;51.058;3.734;2022-07-17T01:55:11;7.15;;;3.67;;
57842;SDS011;43673;51.058;3.734;2022-07-17T01:57:39;9.00;;;4.35;;
57842;SDS011;43673;51.058;3.734;2022-07-17T02:00:06;6.75;;;3.75;;
57842;SDS011;43673;51.058;3.734;2022-07-17T02:02:37;10.43;;;3.67;;
57842;SDS011;43673;51.058;3.734;2022-07-17T02:05:02;5.45;;;3.50;;
57842;SDS011;43673;51.058;3.734;2022-07-17T02:07:28;8.30;;;4.28;;
57842;SDS011;43673;51.058;3.734;2022-07-17T02:09:54;6.35;;;4.47;;
57842;SDS011;43673;51.058;3.734;2022-07-17T02:12:20;6.90;;;3.90;;
57842;SDS011;43673;51.058;3.734;2022-07-17T02:14:45;9.18;;;4.57;;
57842;SDS011;43673;51.058;3.734;2022-07-17T02:17:11;6.05;;;3.85;;
57842;SDS011;43673;51.058;3.734;2022-07-17T02:19:37;8.77;;;4.10;;
57842;SDS011;43673;51.058;3.734;2022-07-17T02:22:02;6.55;;;3.70;;
57842;SDS011;43673;51.058;3.734;2022-07-17T02:24:28;9.50;;;3.75;;
57842;SDS011;43673;51.058;3.734;2022-07-17T02:26:54;6.40;;;3.70;;
57842;SDS011;43673;51.058;3.734;2022-07-17T02:29:19;7.35;;;5.45;;
57842;SDS011;43673;51.058;3.734;2022-07-17T02:31:45;7.53;;;5.18;;
57842;SDS011;43673;51.058;3.734;2022-07-17T02:34:10;6.18;;;3.90;;
57842;SDS011;43673;51.058;3.734;2022-07-17T02:36:36;10.70;;;5.05;;
57842;SDS011;43673;51.058;3.734;2022-07-17T02:39:02;31.35;;;9.73;;
57842;SDS011;43673;51.058;3.734;2022-07-17T02:41:28;12.07;;;5.85;;
57842;SDS011;43673;51.058;3.734;2022-07-17T02:43:54;20.00;;;8.35;;
57842;SDS011;43673;51.058;3.734;2022-07-17T02:46:19;14.57;;;6.43;;
57842;SDS011;43673;51.058;3.734;2022-07-17T02:48:45;8.93;;;5.18;;
57842;SDS011;43673;51.058;3.734;2022-07-17T02:51:10;9.35;;;4.20;;
57842;SDS011;43673;51.058;3.734;2022-07-17T02:53:37;10.05;;;5.20;;
57842;SDS011;43673;51.058;3.734;2022-07-17T02:56:02;6.13;;;4.35;;
57842;SDS011;43673;51.058;3.734;2022-07-17T02:58:28;13.27;;;4.85;;
57842;SDS011;43673;51.058;3.734;2022-07-17T03:00:54;5.28;;;4.18;;
57842;SDS011;43673;51.058;3.734;2022-07-17T03:03:19;9.88;;;5.03;;
57842;SDS011;43673;51.058;3.734;2022-07-17T03:05:46;9.90;;;4.53;;
57842;SDS011;43673;51.058;3.734;2022-07-17T03:08:12;10.07;;;4.78;;
57842;SDS011;43673;51.058;3.734;2022-07-17T03:10:38;8.73;;;4.30;;
57842;SDS011;43673;51.058;3.734;2022-07-17T03:13:04;9.05;;;4.85;;
57842;SDS011;43673;51.058;3.734;2022-07-17T03:15:30;8.95;;;4.13;;
57842;SDS011;43673;51.058;3.734;2022-07-17T03:17:57;6.22;;;4.10;;
57842;SDS011;43673;51.058;3.734;2022-07-17T03:20:23;8.70;;;4.35;;
57842;SDS011;43673;51.058;3.734;2022-07-17T03:22:49;4.95;;;3.65;;
57842;SDS011;43673;51.058;3.734;2022-07-17T03:25:15;7.18;;;4.50;;
57842;SDS011;43673;51.058;3.734;2022-07-17T03:27:41;12.07;;;4.85;;
57842;SDS011;43673;51.058;3.734;2022-07-17T03:30:07;6.47;;;4.20;;
57842;SDS011;43673;51.058;3.734;2022-07-17T03:32:33;11.95;;;5.22;;
57842;SDS011;43673;51.058;3.734;2022-07-17T03:34:59;9.95;;;5.10;;
57842;SDS011;43673;51.058;3.734;2022-07-17T03:37:26;6.80;;;4.40;;
57842;SDS011;43673;51.058;3.734;2022-07-17T03:39:53;10.77;;;4.40;;
57842;SDS011;43673;51.058;3.734;2022-07-17T03:42:19;9.77;;;4.22;;
57842;SDS011;43673;51.058;3.734;2022-07-17T03:44:44;8.23;;;4.50;;
57842;SDS011;43673;51.058;3.734;2022-07-17T03:47:11;8.13;;;4.22;;
57842;SDS011;43673;51.058;3.734;2022-07-17T03:49:37;7.97;;;4.18;;
57842;SDS011;43673;51.058;3.734;2022-07-17T03:52:04;6.88;;;4.40;;
57842;SDS011;43673;51.058;3.734;2022-07-17T03:54:31;7.55;;;4.90;;
57842;SDS011;43673;51.058;3.734;2022-07-17T04:02:07;11.75;;;3.60;;
57842;SDS011;43673;51.058;3.734;2022-07-17T04:13:52;6.25;;;4.88;;
57842;SDS011;43673;51.058;3.734;2022-07-17T04:16:19;7.57;;;4.15;;
57842;SDS011;43673;51.058;3.734;2022-07-17T04:24:04;6.95;;;4.20;;
57842;SDS011;43673;51.058;3.734;2022-07-17T04:26:30;8.15;;;4.22;;
57842;SDS011;43673;51.058;3.734;2022-07-17T04:28:56;6.60;;;4.22;;
57842;SDS011;43673;51.058;3.734;2022-07-17T04:31:22;10.02;;;4.80;;
57842;SDS011;43673;51.058;3.734;2022-07-17T04:33:47;13.68;;;4.93;;
57842;SDS011;43673;51.058;3.734;2022-07-17T04:36:17;7.80;;;4.43;;
57842;SDS011;43673;51.058;3.734;2022-07-17T04:38:43;9.60;;;4.45;;
57842;SDS011;43673;51.058;3.734;2022-07-17T04:41:09;7.35;;;4.65;;
57842;SDS011;43673;51.058;3.734;2022-07-17T04:43:40;9.02;;;4.13;;
57842;SDS011;43673;51.058;3.734;2022-07-17T04:49:24;7.35;;;3.80;;
57842;SDS011;43673;51.058;3.734;2022-07-17T04:51:56;6.70;;;3.85;;
57842;SDS011;43673;51.058;3.734;2022-07-17T04:54:24;8.70;;;4.57;;
57842;SDS011;43673;51.058;3.734;2022-07-17T04:56:50;7.90;;;4.45;;
57842;SDS011;43673;51.058;3.734;2022-07-17T04:59:16;6.55;;;4.15;;
57842;SDS011;43673;51.058;3.734;2022-07-17T05:01:43;10.95;;;5.03;;
57842;SDS011;43673;51.058;3.734;2022-07-17T05:04:09;5.60;;;3.88;;
57842;SDS011;43673;51.058;3.734;2022-07-17T05:06:35;12.38;;;4.68;;
57842;SDS011;43673;51.058;3.734;2022-07-17T05:09:01;7.70;;;4.15;;
57842;SDS011;43673;51.058;3.734;2022-07-17T05:11:28;8.43;;;4.40;;
57842;SDS011;43673;51.058;3.734;2022-07-17T05:13:58;6.70;;;3.70;;
57842;SDS011;43673;51.058;3.734;2022-07-17T05:16:24;7.70;;;3.70;;
57842;SDS011;43673;51.058;3.734;2022-07-17T05:18:50;6.60;;;3.92;;
57842;SDS011;43673;51.058;3.734;2022-07-17T05:21:16;6.68;;;3.45;;
57842;SDS011;43673;51.058;3.734;2022-07-17T05:23:42;5.47;;;3.40;;
57842;SDS011;43673;51.058;3.734;2022-07-17T05:26:08;11.38;;;4.22;;
57842;SDS011;43673;51.058;3.734;2022-07-17T05:28:34;9.27;;;3.50;;
57842;SDS011;43673;51.058;3.734;2022-07-17T05:31:00;7.60;;;3.95;;
57842;SDS011;43673;51.058;3.734;2022-07-17T05:33:25;5.55;;;3.50;;
57842;SDS011;43673;51.058;3.734;2022-07-17T05:35:51;8.25;;;3.70;;
57842;SDS011;43673;51.058;3.734;2022-07-17T05:38:17;8.90;;;3.90;;
57842;SDS011;43673;51.058;3.734;2022-07-17T05:40:43;7.82;;;4.00;;
57842;SDS011;43673;51.058;3.734;2022-07-17T05:43:10;6.90;;;4.05;;
57842;SDS011;43673;51.058;3.734;2022-07-17T05:45:37;14.85;;;4.72;;
57842;SDS011;43673;51.058;3.734;2022-07-17T05:48:07;6.97;;;3.70;;
57842;SDS011;43673;51.058;3.734;2022-07-17T05:50:33;7.57;;;3.38;;
57842;SDS011;43673;51.058;3.734;2022-07-17T05:53:01;7.60;;;4.07;;
57842;SDS011;43673;51.058;3.734;2022-07-17T05:55:26;9.70;;;4.10;;
57842;SDS011;43673;51.058;3.734;2022-07-17T05:57:58;7.20;;;4.75;;
57842;SDS011;43673;51.058;3.734;2022-07-17T06:02:49;5.05;;;4.28;;
57842;SDS011;43673;51.058;3.734;2022-07-17T06:05:15;5.72;;;4.10;;
57842;SDS011;43673;51.058;3.734;2022-07-17T06:07:42;8.07;;;4.32;;
57842;SDS011;43673;51.058;3.734;2022-07-17T06:10:08;5.95;;;3.70;;
57842;SDS011;43673;51.058;3.734;2022-07-17T06:12:34;9.30;;;4.28;;
57842;SDS011;43673;51.058;3.734;2022-07-17T06:15:00;8.88;;;4.80;;
57842;SDS011;43673;51.058;3.734;2022-07-17T06:17:26;10.13;;;4.30;;
57842;SDS011;43673;51.058;3.734;2022-07-17T06:19:53;9.25;;;4.07;;
57842;SDS011;43673;51.058;3.734;2022-07-17T06:22:20;10.57;;;4.22;;
57842;SDS011;43673;51.058;3.734;2022-07-17T06:29:50;7.72;;;4.43;;
57842;SDS011;43673;51.058;3.734;2022-07-17T06:32:17;4.00;;;3.38;;
57842;SDS011;43673;51.058;3.734;2022-07-17T06:34:47;6.10;;;3.63;;
57842;SDS011;43673;51.058;3.734;2022-07-17T06:37:14;8.93;;;4.15;;
57842;SDS011;43673;51.058;3.734;2022-07-17T06:39:39;8.90;;;4.07;;
57842;SDS011;43673;51.058;3.734;2022-07-17T06:42:05;6.07;;;3.63;;
57842;SDS011;43673;51.058;3.734;2022-07-17T06:44:31;6.70;;;3.58;;
57842;SDS011;43673;51.058;3.734;2022-07-17T06:46:57;6.80;;;3.38;;
57842;SDS011;43673;51.058;3.734;2022-07-17T06:49:22;8.57;;;4.13;;
57842;SDS011;43673;51.058;3.734;2022-07-17T06:51:48;7.25;;;3.58;;
57842;SDS011;43673;51.058;3.734;2022-07-17T06:54:14;8.48;;;3.50;;
57842;SDS011;43673;51.058;3.734;2022-07-17T06:56:41;7.03;;;4.13;;
57842;SDS011;43673;51.058;3.734;2022-07-17T06:59:09;6.90;;;3.30;;
57842;SDS011;43673;51.058;3.734;2022-07-17T07:01:36;6.35;;;3.50;;
57842;SDS011;43673;51.058;3.734;2022-07-17T07:04:02;7.10;;;3.67;;
57842;SDS011;43673;51.058;3.734;2022-07-17T07:06:29;3.03;;;2.50;;
57842;SDS011;43673;51.058;3.734;2022-07-17T07:08:55;5.75;;;2.80;;
57842;SDS011;43673;51.058;3.734;2022-07-17T07:11:22;5.00;;;2.83;;
57842;SDS011;43673;51.058;3.734;2022-07-17T07:13:48;5.80;;;2.67;;
57842;SDS011;43673;51.058;3.734;2022-07-17T07:16:16;7.45;;;3.40;;
57842;SDS011;43673;51.058;3.734;2022-07-17T07:18:42;5.60;;;2.38;;
57842;SDS011;43673;51.058;3.734;2022-07-17T07:21:08;3.55;;;2.42;;
57842;SDS011;43673;51.058;3.734;2022-07-17T07:23:33;4.57;;;2.17;;
57842;SDS011;43673;51.058;3.734;2022-07-17T07:25:59;5.97;;;2.42;;
57842;SDS011;43673;51.058;3.734;2022-07-17T07:28:25;6.13;;;2.65;;
57842;SDS011;43673;51.058;3.734;2022-07-17T07:30:51;4.85;;;2.53;;
57842;SDS011;43673;51.058;3.734;2022-07-17T07:33:17;7.20;;;2.97;;
57842;SDS011;43673;51.058;3.734;2022-07-17T07:35:42;5.90;;;2.97;;
57842;SDS011;43673;51.058;3.734;2022-07-17T07:38:08;4.28;;;2.22;;
57842;SDS011;43673;51.058;3.734;2022-07-17T07:40:34;4.38;;;2.03;;
57842;SDS011;43673;51.058;3.734;2022-07-17T07:43:00;5.50;;;2.50;;
57842;SDS011;43673;51.058;3.734;2022-07-17T07:45:26;8.18;;;2.67;;
57842;SDS011;43673;51.058;3.734;2022-07-17T07:47:52;8.15;;;3.03;;
57842;SDS011;43673;51.058;3.734;2022-07-17T07:50:18;5.45;;;2.30;;
57842;SDS011;43673;51.058;3.734;2022-07-17T07:52:50;6.30;;;2.45;;
57842;SDS011;43673;51.058;3.734;2022-07-17T07:55:16;7.72;;;2.38;;
57842;SDS011;43673;51.058;3.734;2022-07-17T07:57:42;6.85;;;2.95;;
57842;SDS011;43673;51.058;3.734;2022-07-17T08:00:09;10.52;;;3.60;;
57842;SDS011;43673;51.058;3.734;2022-07-17T08:02:36;6.38;;;2.53;;
57842;SDS011;43673;51.058;3.734;2022-07-17T08:05:05;8.15;;;2.83;;
57842;SDS011;43673;51.058;3.734;2022-07-17T08:07:31;4.55;;;2.60;;
57842;SDS011;43673;51.058;3.734;2022-07-17T08:10:00;7.20;;;2.40;;
57842;SDS011;43673;51.058;3.734;2022-07-17T08:12:25;5.45;;;2.55;;
57842;SDS011;43673;51.058;3.734;2022-07-17T08:14:51;3.70;;;2.42;;
57842;SDS011;43673;51.058;3.734;2022-07-17T08:17:17;7.43;;;2.70;;
57842;SDS011;43673;51.058;3.734;2022-07-17T08:19:44;5.53;;;2.58;;
57842;SDS011;43673;51.058;3.734;2022-07-17T08:22:10;7.30;;;2.83;;
57842;SDS011;43673;51.058;3.734;2022-07-17T08:24:38;7.10;;;3.30;;
57842;SDS011;43673;51.058;3.734;2022-07-17T08:27:07;6.35;;;2.80;;
57842;SDS011;43673;51.058;3.734;2022-07-17T08:29:33;6.90;;;2.15;;
57842;SDS011;43673;51.058;3.734;2022-07-17T08:32:00;5.85;;;2.42;;
57842;SDS011;43673;51.058;3.734;2022-07-17T08:34:25;7.20;;;2.60;;
57842;SDS011;43673;51.058;3.734;2022-07-17T08:36:51;4.35;;;2.30;;
57842;SDS011;43673;51.058;3.734;2022-07-17T08:39:17;5.03;;;2.80;;
57842;SDS011;43673;51.058;3.734;2022-07-17T08:41:42;12.60;;;2.47;;
57842;SDS011;43673;51.058;3.734;2022-07-17T08:44:08;6.93;;;2.72;;
57842;SDS011;43673;51.058;3.734;2022-07-17T08:46:38;9.07;;;2.28;;
57842;SDS011;43673;51.058;3.734;2022-07-17T08:51:31;6.22;;;2.13;;
57842;SDS011;43673;51.058;3.734;2022-07-17T08:53:57;5.68;;;2.47;;
57842;SDS011;43673;51.058;3.734;2022-07-17T08:56:24;6.07;;;2.47;;
57842;SDS011;43673;51.058;3.734;2022-07-17T08:58:50;9.10;;;2.45;;
57842;SDS011;43673;51.058;3.734;2022-07-17T09:01:17;6.10;;;2.63;;
57842;SDS011;43673;51.058;3.734;2022-07-17T09:03:58;3.42;;;2.25;;
57842;SDS011;43673;51.058;3.734;2022-07-17T09:06:33;7.07;;;2.58;;
57842;SDS011;43673;51.058;3.734;2022-07-17T09:11:48;8.38;;;3.10;;
57842;SDS011;43673;51.058;3.734;2022-07-17T09:14:19;7.93;;;2.90;;
57842;SDS011;43673;51.058;3.734;2022-07-17T09:28:17;6.72;;;2.25;;
57842;SDS011;43673;51.058;3.734;2022-07-17T09:30:47;7.40;;;2.25;;
57842;SDS011;43673;51.058;3.734;2022-07-17T09:33:25;6.88;;;3.13;;
57842;SDS011;43673;51.058;3.734;2022-07-17T09:35:53;6.85;;;2.40;;
57842;SDS011;43673;51.058;3.734;2022-07-17T09:38:40;4.20;;;2.67;;
57842;SDS011;43673;51.058;3.734;2022-07-17T09:43:54;4.13;;;2.47;;
57842;SDS011;43673;51.058;3.734;2022-07-17T09:46:26;6.53;;;2.60;;
57842;SDS011;43673;51.058;3.734;2022-07-17T09:48:54;3.58;;;2.03;;
57842;SDS011;43673;51.058;3.734;2022-07-17T09:51:22;8.25;;;3.50;;
57842;SDS011;43673;51.058;3.734;2022-07-17T09:54:07;6.82;;;3.08;;
57842;SDS011;43673;51.058;3.734;2022-07-17T09:56:36;5.20;;;2.42;;
57842;SDS011;43673;51.058;3.734;2022-07-17T09:59:03;5.53;;;3.00;;
57842;SDS011;43673;51.058;3.734;2022-07-17T10:01:34;6.47;;;2.50;;
57842;SDS011;43673;51.058;3.734;2022-07-17T10:04:01;7.20;;;3.10;;
57842;SDS011;43673;51.058;3.734;2022-07-17T10:06:27;5.30;;;2.30;;
57842;SDS011;43673;51.058;3.734;2022-07-17T10:08:54;5.60;;;1.98;;
57842;SDS011;43673;51.058;3.734;2022-07-17T10:11:21;8.05;;;2.22;;
57842;SDS011;43673;51.058;3.734;2022-07-17T10:13:50;7.10;;;3.60;;
57842;SDS011;43673;51.058;3.734;2022-07-17T10:16:24;3.90;;;2.97;;
57842;SDS011;43673;51.058;3.734;2022-07-17T10:18:56;5.43;;;2.97;;
57842;SDS011;43673;51.058;3.734;2022-07-17T10:21:24;4.30;;;3.05;;
57842;SDS011;43673;51.058;3.734;2022-07-17T10:26:33;6.10;;;2.72;;
57842;SDS011;43673;51.058;3.734;2022-07-17T10:29:06;7.47;;;3.15;;
57842;SDS011;43673;51.058;3.734;2022-07-17T10:31:34;4.90;;;2.38;;
57842;SDS011;43673;51.058;3.734;2022-07-17T10:34:01;6.72;;;2.65;;
57842;SDS011;43673;51.058;3.734;2022-07-17T10:41:38;6.93;;;2.97;;
57842;SDS011;43673;51.058;3.734;2022-07-17T10:44:05;8.07;;;3.33;;
57842;SDS011;43673;51.058;3.734;2022-07-17T10:46:31;6.72;;;2.83;;
57842;SDS011;43673;51.058;3.734;2022-07-17T10:48:56;5.47;;;2.47;;
57842;SDS011;43673;51.058;3.734;2022-07-17T10:51:26;7.40;;;2.88;;
57842;SDS011;43673;51.058;3.734;2022-07-17T10:53:57;6.38;;;2.83;;
57842;SDS011;43673;51.058;3.734;2022-07-17T10:56:24;7.00;;;3.17;;
57842;SDS011;43673;51.058;3.734;2022-07-17T10:58:51;6.28;;;2.90;;
57842;SDS011;43673;51.058;3.734;2022-07-17T11:01:18;7.18;;;3.53;;
57842;SDS011;43673;51.058;3.734;2022-07-17T11:08:47;9.07;;;3.25;;
57842;SDS011;43673;51.058;3.734;2022-07-17T11:11:21;5.78;;;2.80;;
57842;SDS011;43673;51.058;3.734;2022-07-17T11:13:49;4.85;;;2.85;;
57842;SDS011;43673;51.058;3.734;2022-07-17T11:16:28;7.40;;;3.92;;
57842;SDS011;43673;51.058;3.734;2022-07-17T11:21:20;5.85;;;3.35;;
57842;SDS011;43673;51.058;3.734;2022-07-17T11:23:51;8.07;;;4.25;;
57842;SDS011;43673;51.058;3.734;2022-07-17T11:26:18;6.68;;;3.85;;
57842;SDS011;43673;51.058;3.734;2022-07-17T11:28:45;3.80;;;3.40;;
57842;SDS011;43673;51.058;3.734;2022-07-17T11:31:22;4.45;;;3.78;;
57842;SDS011;43673;51.058;3.734;2022-07-17T11:33:51;3.47;;;3.17;;
57842;SDS011;43673;51.058;3.734;2022-07-17T11:36:26;5.55;;;3.97;;
57842;SDS011;43673;51.058;3.734;2022-07-17T11:38:56;5.40;;;3.50;;
57842;SDS011;43673;51.058;3.734;2022-07-17T11:41:29;6.65;;;4.00;;
57842;SDS011;43673;51.058;3.734;2022-07-17T11:43:56;8.45;;;5.22;;
57842;SDS011;43673;51.058;3.734;2022-07-17T11:46:23;6.65;;;3.75;;
57842;SDS011;43673;51.058;3.734;2022-07-17T11:48:53;7.18;;;4.32;;
57842;SDS011;43673;51.058;3.734;2022-07-17T11:51:19;10.27;;;3.95;;
57842;SDS011;43673;51.058;3.734;2022-07-17T11:53:48;4.55;;;3.60;;
57842;SDS011;43673;51.058;3.734;2022-07-17T12:07:03;8.73;;;4.20;;
57842;SDS011;43673;51.058;3.734;2022-07-17T12:09:31;7.78;;;3.95;;
57842;SDS011;43673;51.058;3.734;2022-07-17T12:12:01;7.63;;;4.40;;
57842;SDS011;43673;51.058;3.734;2022-07-17T12:14:28;7.18;;;4.40;;
57842;SDS011;43673;51.058;3.734;2022-07-17T12:17:01;6.30;;;3.80;;
57842;SDS011;43673;51.058;3.734;2022-07-17T12:19:29;5.50;;;4.50;;
57842;SDS011;43673;51.058;3.734;2022-07-17T12:21:59;7.32;;;3.63;;
57842;SDS011;43673;51.058;3.734;2022-07-17T12:27:09;7.28;;;3.78;;
57842;SDS011;43673;51.058;3.734;2022-07-17T12:29:41;9.27;;;4.10;;
57842;SDS011;43673;51.058;3.734;2022-07-17T12:32:14;7.65;;;3.53;;
57842;SDS011;43673;51.058;3.734;2022-07-17T12:34:55;4.97;;;3.67;;
57842;SDS011;43673;51.058;3.734;2022-07-17T12:37:24;5.72;;;3.53;;
57842;SDS011;43673;51.058;3.734;2022-07-17T12:39:50;4.47;;;3.85;;
57842;SDS011;43673;51.058;3.734;2022-07-17T12:42:16;6.35;;;3.75;;
57842;SDS011;43673;51.058;3.734;2022-07-17T12:44:46;6.90;;;3.83;;
57842;SDS011;43673;51.058;3.734;2022-07-17T12:47:12;6.35;;;3.90;;
57842;SDS011;43673;51.058;3.734;2022-07-17T12:49:37;7.78;;;4.32;;
57842;SDS011;43673;51.058;3.734;2022-07-17T12:52:04;8.55;;;4.65;;
57842;SDS011;43673;51.058;3.734;2022-07-17T12:54:30;8.30;;;3.58;;
57842;SDS011;43673;51.058;3.734;2022-07-17T12:57:00;6.22;;;4.20;;
57842;SDS011;43673;51.058;3.734;2022-07-17T12:59:28;7.72;;;4.40;;
57842;SDS011;43673;51.058;3.734;2022-07-17T13:01:55;7.20;;;3.95;;
57842;SDS011;43673;51.058;3.734;2022-07-17T13:04:21;7.10;;;3.72;;
57842;SDS011;43673;51.058;3.734;2022-07-17T13:12:37;7.85;;;4.47;;
57842;SDS011;43673;51.058;3.734;2022-07-17T13:15:06;5.30;;;4.25;;
57842;SDS011;43673;51.058;3.734;2022-07-17T13:17:33;5.45;;;4.15;;
57842;SDS011;43673;51.058;3.734;2022-07-17T13:20:01;7.70;;;4.05;;
57842;SDS011;43673;51.058;3.734;2022-07-17T13:22:37;5.25;;;3.88;;
57842;SDS011;43673;51.058;3.734;2022-07-17T13:25:04;6.40;;;4.07;;
57842;SDS011;43673;51.058;3.734;2022-07-17T13:30:32;7.30;;;4.78;;
57842;SDS011;43673;51.058;3.734;2022-07-17T13:32:59;5.25;;;4.75;;
57842;SDS011;43673;51.058;3.734;2022-07-17T13:35:25;9.68;;;4.28;;
57842;SDS011;43673;51.058;3.734;2022-07-17T13:37:51;5.28;;;4.18;;
57842;SDS011;43673;51.058;3.734;2022-07-17T13:40:17;6.13;;;4.25;;
57842;SDS011;43673;51.058;3.734;2022-07-17T13:42:56;6.60;;;4.35;;
57842;SDS011;43673;51.058;3.734;2022-07-17T13:45:22;6.20;;;4.65;;
57842;SDS011;43673;51.058;3.734;2022-07-17T13:47:48;6.13;;;4.35;;
57842;SDS011;43673;51.058;3.734;2022-07-17T13:50:14;6.38;;;4.90;;
57842;SDS011;43673;51.058;3.734;2022-07-17T13:52:39;8.20;;;5.60;;
57842;SDS011;43673;51.058;3.734;2022-07-17T13:55:05;8.23;;;5.40;;
57842;SDS011;43673;51.058;3.734;2022-07-17T13:57:35;9.40;;;5.85;;
57842;SDS011;43673;51.058;3.734;2022-07-17T14:00:04;5.20;;;4.38;;
57842;SDS011;43673;51.058;3.734;2022-07-17T14:02:31;7.07;;;4.78;;
57842;SDS011;43673;51.058;3.734;2022-07-17T14:05:13;6.25;;;4.03;;
57842;SDS011;43673;51.058;3.734;2022-07-17T14:07:51;5.75;;;5.10;;
57842;SDS011;43673;51.058;3.734;2022-07-17T14:10:16;10.50;;;4.95;;
57842;SDS011;43673;51.058;3.734;2022-07-17T14:12:48;8.57;;;5.05;;
57842;SDS011;43673;51.058;3.734;2022-07-17T14:15:34;10.07;;;5.20;;
57842;SDS011;43673;51.058;3.734;2022-07-17T14:18:00;9.13;;;5.35;;
57842;SDS011;43673;51.058;3.734;2022-07-17T14:20:27;7.50;;;5.22;;
57842;SDS011;43673;51.058;3.734;2022-07-17T15:05:06;6.57;;;5.75;;
57842;SDS011;43673;51.058;3.734;2022-07-17T15:07:46;7.53;;;6.30;;
57842;SDS011;43673;51.058;3.734;2022-07-17T15:10:22;6.53;;;5.03;;
57842;SDS011;43673;51.058;3.734;2022-07-17T15:12:51;7.97;;;5.97;;
57842;SDS011;43673;51.058;3.734;2022-07-17T15:15:27;9.00;;;6.13;;
57842;SDS011;43673;51.058;3.734;2022-07-17T15:18:25;8.18;;;6.15;;
57842;SDS011;43673;51.058;3.734;2022-07-17T15:23:58;7.32;;;5.20;;
57842;SDS011;43673;51.058;3.734;2022-07-17T15:26:34;6.35;;;5.03;;
57842;SDS011;43673;51.058;3.734;2022-07-17T15:29:00;9.77;;;5.22;;
57842;SDS011;43673;51.058;3.734;2022-07-17T16:37:29;6.57;;;5.18;;
57842;SDS011;43673;51.058;3.734;2022-07-17T16:40:04;5.13;;;4.63;;
57842;SDS011;43673;51.058;3.734;2022-07-17T16:42:35;9.52;;;5.25;;
57842;SDS011;43673;51.058;3.734;2022-07-17T16:45:04;8.45;;;5.30;;
57842;SDS011;43673;51.058;3.734;2022-07-17T16:47:48;7.32;;;5.13;;
57842;SDS011;43673;51.058;3.734;2022-07-17T16:50:31;8.70;;;5.40;;
57842;SDS011;43673;51.058;3.734;2022-07-17T17:02:20;8.43;;;5.20;;
57842;SDS011;43673;51.058;3.734;2022-07-17T17:04:58;7.43;;;5.10;;
57842;SDS011;43673;51.058;3.734;2022-07-17T17:07:23;6.88;;;4.97;;
57842;SDS011;43673;51.058;3.734;2022-07-17T17:09:52;8.02;;;5.13;;
57842;SDS011;43673;51.058;3.734;2022-07-17T17:12:18;6.63;;;5.07;;
57842;SDS011;43673;51.058;3.734;2022-07-17T17:14:44;6.50;;;4.53;;
57842;SDS011;43673;51.058;3.734;2022-07-17T17:17:10;9.95;;;5.15;;
57842;SDS011;43673;51.058;3.734;2022-07-17T17:19:39;11.05;;;6.53;;
57842;SDS011;43673;51.058;3.734;2022-07-17T17:22:08;6.95;;;6.25;;
57842;SDS011;43673;51.058;3.734;2022-07-17T17:24:36;7.47;;;4.97;;
57842;SDS011;43673;51.058;3.734;2022-07-17T17:27:16;9.18;;;5.97;;
57842;SDS011;43673;51.058;3.734;2022-07-17T17:29:42;8.18;;;6.32;;
57842;SDS011;43673;51.058;3.734;2022-07-17T17:35:01;6.50;;;5.30;;
57842;SDS011;43673;51.058;3.734;2022-07-17T17:40:52;7.22;;;5.40;;
57842;SDS011;43673;51.058;3.734;2022-07-17T17:43:18;8.32;;;4.97;;
57842;SDS011;43673;51.058;3.734;2022-07-17T17:45:44;6.05;;;5.13;;
57842;SDS011;43673;51.058;3.734;2022-07-17T17:48:13;5.78;;;5.00;;
57842;SDS011;43673;51.058;3.734;2022-07-17T17:50:40;4.97;;;4.43;;
57842;SDS011;43673;51.058;3.734;2022-07-17T17:53:06;9.48;;;5.25;;
57842;SDS011;43673;51.058;3.734;2022-07-17T17:55:38;8.40;;;5.05;;
57842;SDS011;43673;51.058;3.734;2022-07-17T17:58:42;7.75;;;4.85;;
57842;SDS011;43673;51.058;3.734;2022-07-17T18:04:36;7.40;;;4.88;;
57842;SDS011;43673;51.058;3.734;2022-07-17T18:07:08;10.65;;;5.20;;
57842;SDS011;43673;51.058;3.734;2022-07-17T18:09:34;6.22;;;5.57;;
57842;SDS011;43673;51.058;3.734;2022-07-17T18:12:06;7.70;;;5.05;;
57842;SDS011;43673;51.058;3.734;2022-07-17T18:14:35;7.93;;;4.50;;
57842;SDS011;43673;51.058;3.734;2022-07-17T18:20:36;8.95;;;6.97;;
57842;SDS011;43673;51.058;3.734;2022-07-17T18:23:02;7.68;;;5.32;;
57842;SDS011;43673;51.058;3.734;2022-07-17T18:25:28;6.28;;;4.70;;
57842;SDS011;43673;51.058;3.734;2022-07-17T18:27:54;6.25;;;5.28;;
57842;SDS011;43673;51.058;3.734;2022-07-17T18:30:20;9.48;;;5.07;;